Latest Coastal Weather Observations for Kiama

IDN60701

Issued at 6:51 pm EDT Wednesday 18 January 2017 (issued every 10 minutes, with the page automatically refreshed every 10 minutes)

About coastal observations | Map of coastal stations | Coastal observations for NSW | Marine services | Other Formats
Station Details ID: 068242 Name: KIAMA (BOMBO HEADLAND) Lat: -34.65 Lon: 150.86 Height: 15.5 m
Data from the previous 72 hours. | See also: Recent months at Kiama
Date/Time
EDT
Temp
°C
Wind Pressure Rain since
9am
mm
Weather Cloud Vis
km
Sea
Height
m
Swell
Dir  Spd
kts
Gust
kts
hPa Trend Height
m
Period
s
Dir
18/06:30pm 21.5 SSE 21 26 - - 0.0 - - - - - - -
18/06:00pm 21.6 SSE 22 27 - - 0.0 - - - - - - -
18/05:30pm 21.7 SSE 23 29 - - 0.0 - - - - - - -
18/05:00pm 21.9 S 24 31 - - 0.0 - - - - - - -
18/04:30pm 22.1 S 21 28 - - 0.0 - - - - - - -
18/04:00pm 22.7 S 19 27 - - 0.0 - - - - - - -
18/03:30pm 23.2 S 20 26 - - 0.0 - - - - - - -
18/03:00pm 23.8 S 18 25 - - 0.0 - - - - - - -
18/02:30pm 24.8 S 17 21 - - 0.0 - - - - - - -
18/02:00pm 25.3 S 16 22 - - 0.0 - - - - - - -
18/01:30pm 25.0 S 17 22 - - 0.0 - - - - - - -
18/01:00pm 24.7 S 16 21 - - 0.0 - - - - - - -
18/12:30pm 24.6 S 17 22 - - 0.0 - - - - - - -
18/12:00pm 24.6 S 17 20 - - 0.0 - - - - - - -
18/11:30am 24.4 SSE 17 21 - - 0.0 - - - - - - -
18/11:00am 25.7 S 17 21 - - 0.0 - - - - - - -
18/10:30am 26.8 S 18 24 - - 0.0 - - - - - - -
18/10:00am 26.8 S 20 27 - - 0.0 - - - - - - -
18/09:30am 26.2 S 23 28 - - 0.0 - - - - - - -
18/09:00am 26.2 S 23 31 - - 4.8 - - - - - - -
18/08:30am 26.0 S 27 34 - - 4.8 - - - - - - -
18/08:20am 25.6 S 24 36 - - 4.8 - - - - - - -
18/08:00am 25.7 S 28 36 - - 4.8 - - - - - - -
18/07:40am 25.0 S 24 35 - - 4.8 - - - - - - -
18/07:30am 25.1 S 21 29 - - 4.8 - - - - - - -
18/07:16am 27.4 W 10 24 - - 4.8 - - - - - - -
18/07:00am 33.5 NW 9 15 - - 4.8 - - - - - - -
18/06:30am 32.9 WNW 8 11 - - 4.8 - - - - - - -
18/06:00am 31.5 W 6 9 - - 4.8 - - - - - - -
18/05:30am 31.5 WSW 4 8 - - 4.8 - - - - - - -
18/05:00am 30.6 WNW 4 7 - - 4.8 - - - - - - -
18/04:30am 29.4 W 3 5 - - 4.8 - - - - - - -
18/04:00am 27.9 W 3 4 - - 4.8 - - - - - - -
18/03:30am 25.5 N 2 4 - - 4.8 - - - - - - -
18/03:00am 24.3 N 4 5 - - 4.8 - - - - - - -
18/02:30am 25.0 N 3 3 - - 4.8 - - - - - - -
18/02:00am 25.2 N 3 4 - - 4.8 - - - - - - -
18/01:30am 25.3 N 5 6 - - 4.8 - - - - - - -
18/01:00am 24.6 NNW 6 8 - - 4.8 - - - - - - -
18/12:30am 24.1 N 6 7 - - 4.8 - - - - - - -
18/12:00am 23.7 N 6 7 - - 4.8 - - - - - - -
 
Date/Time
EDT
Temp
°C
Wind Pressure Rain since
9am
mm
Weather Cloud Vis
km
Sea
Height
m
Swell
Dir  Spd
kts
Gust
kts
hPa Trend Height
m
Period
s
Dir
17/11:30pm 24.1 NNE 5 7 - - 4.8 - - - - - - -
17/11:00pm 25.6 NW 7 9 - - 4.8 - - - - - - -
17/10:30pm 23.6 N 6 7 - - 4.8 - - - - - - -
17/10:00pm 24.0 NNE 3 4 - - 4.8 - - - - - - -
17/09:30pm 24.3 N 6 8 - - 4.8 - - - - - - -
17/09:00pm 23.7 N 6 8 - - 4.8 - - - - - - -
17/08:30pm 25.1 N 7 11 - - 4.8 - - - - - - -
17/08:00pm 25.4 NNE 9 16 - - 4.8 - - - - - - -
17/07:30pm 26.3 NE 6 14 - - 4.8 - - - - - - -
17/07:00pm 26.5 W 9 23 - - 3.6 - - - - - - -
17/06:30pm 25.4 NNE 10 13 - - 0.0 - - - - - - -
17/06:00pm 26.8 N 10 14 - - 0.0 - - - - - - -
17/05:30pm 27.1 N 9 14 - - 0.0 - - - - - - -
17/05:00pm 27.2 N 8 12 - - 0.0 - - - - - - -
17/04:30pm 27.5 N 11 15 - - 0.0 - - - - - - -
17/04:00pm 26.5 N 9 13 - - 0.0 - - - - - - -
17/03:30pm 26.5 N 9 13 - - 0.0 - - - - - - -
17/03:00pm 28.2 N 8 13 - - 0.0 - - - - - - -
17/02:30pm 26.4 N 13 18 - - 0.0 - - - - - - -
17/02:00pm 27.6 N 10 13 - - 0.0 - - - - - - -
17/01:30pm 27.8 NNE 7 13 - - 0.0 - - - - - - -
17/01:00pm 27.1 NNE 10 16 - - 0.0 - - - - - - -
17/12:30pm 26.4 NNE 9 13 - - 0.0 - - - - - - -
17/12:00pm 25.9 NNE 12 16 - - 0.0 - - - - - - -
17/11:30am 26.0 NNE 11 14 - - 0.0 - - - - - - -
17/11:00am 26.3 NNE 10 15 - - 0.0 - - - - - - -
17/10:30am 25.6 N 10 15 - - 0.0 - - - - - - -
17/10:00am 25.3 NNE 10 14 - - 0.0 - - - - - - -
17/09:30am 24.9 NNE 12 15 - - 0.0 - - - - - - -
17/09:00am 24.5 NNE 7 11 - - 0.0 - - - - - - -
17/08:30am 23.7 N 6 9 - - 0.0 - - - - - - -
17/08:00am 22.9 N 5 7 - - 0.0 - - - - - - -
17/07:30am 21.5 N 6 10 - - 0.0 - - - - - - -
17/07:00am 20.4 N 5 7 - - 0.0 - - - - - - -
17/06:30am 19.7 N 4 7 - - 0.0 - - - - - - -
17/06:00am 19.6 N 4 6 - - 0.0 - - - - - - -
17/05:30am 19.6 N 4 6 - - 0.0 - - - - - - -
17/05:00am 19.8 NNW 5 8 - - 0.0 - - - - - - -
17/04:30am 19.7 NNW 4 6 - - 0.0 - - - - - - -
17/04:00am 20.0 NNW 4 7 - - 0.0 - - - - - - -
17/03:30am 20.1 NNW 4 6 - - 0.0 - - - - - - -
17/03:00am 20.2 N 2 4 - - 0.0 - - - - - - -
17/02:30am 20.4 NNW 3 5 - - 0.0 - - - - - - -
17/02:00am 20.8 N 3 5 - - 0.0 - - - - - - -
17/01:30am 21.0 N 5 7 - - 0.0 - - - - - - -
17/01:00am 21.1 N 4 8 - - 0.0 - - - - - - -
17/12:30am 21.8 N 7 10 - - 0.0 - - - - - - -
17/12:00am 21.9 N 7 9 - - 0.0 - - - - - - -
 
Date/Time
EDT
Temp
°C
Wind Pressure Rain since
9am
mm
Weather Cloud Vis
km
Sea
Height
m
Swell
Dir  Spd
kts
Gust
kts
hPa Trend Height
m
Period
s
Dir
16/11:30pm 21.9 N 5 7 - - 0.0 - - - - - - -
16/11:00pm 22.4 N 11 15 - - 0.0 - - - - - - -
16/10:30pm 22.5 N 13 17 - - 0.0 - - - - - - -
16/10:00pm 22.6 N 13 17 - - 0.0 - - - - - - -
16/09:30pm 22.7 N 15 20 - - 0.0 - - - - - - -
16/09:00pm 22.8 NNE 17 24 - - 0.0 - - - - - - -
16/08:30pm 22.8 NNE 16 23 - - 0.0 - - - - - - -
16/08:00pm 22.9 NNE 15 22 - - 0.0 - - - - - - -
16/07:30pm 23.2 NNE 13 22 - - 0.0 - - - - - - -
16/07:00pm 23.5 NNE 13 18 - - 0.0 - - - - - - -
16/06:30pm 23.9 NNE 12 17 - - 0.0 - - - - - - -
16/06:00pm 24.4 NNE 11 18 - - 0.0 - - - - - - -
16/05:30pm 24.7 NNE 11 15 - - 0.0 - - - - - - -
16/05:00pm 25.0 NNE 11 17 - - 0.0 - - - - - - -
16/04:30pm 25.3 NNE 11 17 - - 0.0 - - - - - - -
16/04:00pm 25.6 NNE 12 17 - - 0.0 - - - - - - -
16/03:30pm 25.5 NNE 13 19 - - 0.0 - - - - - - -
16/03:00pm 24.9 NNE 16 23 - - 0.0 - - - - - - -
16/02:30pm 25.0 NNE 17 23 - - 0.0 - - - - - - -
16/02:00pm 25.1 NNE 17 25 - - 0.0 - - - - - - -
16/01:30pm 25.0 NNE 18 25 - - 0.0 - - - - - - -
16/01:00pm 24.9 NNE 19 25 - - 0.0 - - - - - - -
16/12:30pm 24.9 NNE 17 24 - - 0.0 - - - - - - -
16/12:00pm 24.8 NNE 15 21 - - 0.0 - - - - - - -
16/11:30am 25.3 NNE 13 18 - - 0.0 - - - - - - -
16/11:00am 24.9 NNE 13 17 - - 0.0 - - - - - - -
16/10:30am 24.6 NNE 12 17 - - 0.0 - - - - - - -
16/10:00am 25.2 N 9 16 - - 0.0 - - - - - - -
16/09:30am 24.6 N 11 16 - - 0.0 - - - - - - -
16/09:00am 23.9 N 10 13 - - 2.2 - - - - - - -
16/08:30am 22.8 N 7 11 - - 2.2 - - - - - - -
16/08:00am 21.3 N 5 10 - - 2.2 - - - - - - -
16/07:30am 20.3 NNE 2 4 - - 2.2 - - - - - - -
16/07:00am 19.6 NNW 1 3 - - 2.2 - - - - - - -
16/06:30am 19.1 NNW 1 3 - - 2.2 - - - - - - -
16/06:00am 18.9 CALM 0 0 - - 2.2 - - - - - - -
16/05:30am 18.9 CALM 0 0 - - 2.2 - - - - - - -
16/05:00am 19.1 CALM 0 0 - - 2.2 - - - - - - -
16/04:30am 19.4 CALM 0 0 - - 2.2 - - - - - - -
16/04:00am 19.5 CALM 0 0 - - 2.2 - - - - - - -
16/03:30am 19.4 CALM 0 0 - - 2.2 - - - - - - -
16/03:00am 19.6 CALM 0 0 - - 2.2 - - - - - - -
16/02:30am 19.6 CALM 0 1 - - 2.2 - - - - - - -
16/02:00am 20.1 CALM 0 0 - - 2.2 - - - - - - -
16/01:30am 20.1 CALM 0 0 - - 2.2 - - - - - - -
16/01:00am 20.1 CALM 0 0 - - 2.2 - - - - - - -
16/12:30am 20.1 CALM 0 0 - - 2.2 - - - - - - -
16/12:00am 20.0 CALM 0 0 - - 2.2 Recent precip. - - - - - -
 
Date/Time
EDT
Temp
°C
Wind Pressure Rain since
9am
mm
Weather Cloud Vis
km
Sea
Height
m
Swell
Dir  Spd
kts
Gust
kts
hPa Trend Height
m
Period
s
Dir
15/11:30pm 20.0 SW 3 3 - - 2.2 - - - - - - -
15/11:00pm 19.8 WSW 1 3 - - 2.0 - - - - - - -
15/10:30pm 19.7 WSW 4 5 - - 1.8 - - - - - - -
15/10:00pm 19.9 WSW 2 3 - - 1.8 - - - - - - -
15/09:30pm 19.8 SW 3 4 - - 0.8 - - - - - - -
15/09:00pm 20.0 WSW 3 4 - - 0.6 Recent precip. - - - - - -
15/08:30pm 20.1 WSW 3 4 - - 0.4 - - - - - - -
15/08:00pm 20.7 SW 2 4 - - 0.0 - - - - - - -
15/07:30pm 20.9 NE 4 5 - - 0.0 - - - - - - -
15/07:00pm 21.1 CALM 0 1 - - 0.0 - - - - - - -

Other Formats:

Comma delimited format used in spreadsheet applications
http://www.bom.gov.au/fwo/IDN60701/IDN60701.95749.axf

JavaScript Object Notation format (JSON) in row-major order
http://www.bom.gov.au/fwo/IDN60701/IDN60701.95749.json